Hlavní strana
METAR-TAF:

METAR-TAF

Letiště :

Mezinárodní letiště Honiara

Honiara, Guadalcanal, Šalamounovy ostrovy

zeměpisná šířka: 09-25S, zeměpisná délka: 160-03E, výška: 8 m

Aktuální stav počasí

Zpráva byla vytvořena před 34 minutami, v 14:00 UTC
Západní vítr 2 kt
Teplota 23°C
Vlhkost vzduchu 89%
Tlak 1011 hPa
Viditelnost 10 km a více
Skoro jasno ve výšce 1500 ft
Polojasno ve výšce 2800 ft
Zataženo ve výšce 30000 ft

METAR: AGGH 241400Z 27002KT 9999 FEW015 SCT028 OVC300 23/21 Q1011

Čas: 01:34 (14:34 UTC)

Předpověď počasí

Zpráva byla vytvořena před 3 hodinami a 59 minutami, v 10:35 UTC
Předpověď platná od 24 v 12 UTC do 25 v 12 UTC
vítr z různých směrů 3 kt
Viditelnost: 1011 m
Skoro jasno ve výšce 1500 ft
Polojasno ve výšce 2700 ft
Oblačno až skoro zataženo ve výšce 10000 ft
slabé dešťové přeháňky

TAF: AGGH 241035Z 2412/2512 VRB03KT 9999 -SHRA FEW015 SCT027 BKN100 T 23 23 24 26 Q 1011 1010 1010 1011

Stav a předpovědi počasí z více než 4 000 letišť (zprávy METAR a TAF).

Červené a žluté tečky na mapě představují dostupné meteorologické stanice.

Když kurzor umístíte na tečku, zobrazí se název stanice.

Pak kliknutím zobrazíte stav a předpověď počasí.

Chcete-li změnit mapu, kliknutím na zelené tlačítko se znaménkem +mapu přiblížíte, kliknutím na zelené tlačítko se znaménkem – mapu oddálíte a kliknutím na zelené šipky přejdete na sousední mapy.


METAR-TAF: